ADDS METAR Data INFO
IDs: Format: Raw Decoded Include TAF

Data at: 2225 UTC 24 Jun 2018

KJWN 242215Z AUTO 00000KT 10SM CLR 31/21 A2994 RMK A01
KJWN 242155Z AUTO 18005KT 10SM CLR 31/21 A2995 RMK A01
KJWN 242135Z AUTO VRB06KT 9SM CLR 32/21 A2995 RMK A01
KJWN 242115Z AUTO 31006KT 10SM CLR 32/21 A2995 RMK A01
KJWN 242055Z AUTO 26004KT 10SM FEW070 32/21 A2995 RMK A01
KJWN 242035Z AUTO 29008KT 10SM FEW048 SCT055 BKN070 32/20 A2997 RMK A01
KJWN 242015Z AUTO 27009KT 10SM SCT050 BKN060 BKN070 31/20 A2996 RMK A01
KJWN 241955Z AUTO 28010G16KT 10SM FEW060 33/19 A2994 RMK A01
KJWN 241935Z AUTO 29013KT 10SM CLR 33/19 A2994 RMK A01
KJWN 241915Z AUTO 26007KT 9SM FEW055 33/20 A2995 RMK A01
KJWN 241855Z AUTO 23013KT 9SM CLR 33/21 A2996 RMK A01
KJWN 241835Z AUTO 26011KT 230V290 9SM CLR 32/22 A2997 RMK A01
KJWN 241815Z AUTO 24010G15KT 210V270 10SM FEW038 FEW046 FEW055 33/20 A2997 RMK A01
KJWN 241755Z AUTO 24010KT 9SM FEW036 SCT045 32/22 A2997 RMK A01
KJWN 241735Z AUTO 29008KT 9SM CLR 32/22 A2996 RMK A01
KJWN 241715Z AUTO 25007KT 10SM CLR 31/22 A2996 RMK A01
KJWN 241655Z AUTO VRB04G10KT 9SM CLR 31/22 A2995 RMK A01
KJWN 241635Z AUTO 29009KT 9SM CLR 31/23 A2995 RMK A01
KJWN 241615Z AUTO 00000KT 7SM SCT022 SCT031 SCT043 30/24 A2996 RMK A01
KJWN 241555Z AUTO 02004KT 9SM SCT021 BKN029 BKN037 29/24 A2996 RMK A01
KJWN 241535Z AUTO 25005KT 9SM FEW018 SCT028 BKN037 29/24 A2997 RMK A01
KJWN 241515Z AUTO VRB04KT 9SM FEW018 SCT040 BKN045 28/24 A2997 RMK A01
KJWN 241455Z AUTO 23005KT 8SM FEW015 SCT020 BKN055 29/24 A2997 RMK A01
KJWN 241435Z AUTO VRB05KT 8SM FEW014 SCT018 BKN023 28/24 A2996 RMK A01
KJWN 241415Z AUTO 23006KT 8SM BKN015 OVC021 27/24 A2995 RMK A01
KJWN 241355Z AUTO 22005KT 7SM BKN015 OVC021 27/24 A2996 RMK A01
KJWN 241335Z AUTO 25005KT 9SM OVC013 27/24 A2995 RMK A01
KJWN 241315Z AUTO 00000KT 8SM BKN011 OVC017 26/24 A2994 RMK A01
KJWN 241255Z AUTO 19005KT 7SM BKN009 OVC015 26/23 A2994 RMK A01
KJWN 241235Z AUTO 22005KT 7SM OVC008 25/23 A2995 RMK A01
KJWN 241215Z AUTO 23005KT 7SM OVC007 25/23 A2994 RMK A01
KJWN 241155Z AUTO VRB04KT 8SM OVC007 24/23 A2993 RMK A01
KJWN 241135Z AUTO 22005KT 7SM OVC006 24/22 A2993 RMK A01
KJWN 241115Z AUTO 00000KT 8SM OVC006 24/22 A2992 RMK A01
KJWN 241055Z AUTO 00000KT 9SM OVC008 23/21 A2992 RMK A01
KJWN 241035Z AUTO 00000KT 9SM BKN010 BKN023 23/21 A2991 RMK A01
KJWN 241015Z AUTO 00000KT 10SM BKN012 BKN027 23/21 A2990 RMK A01
KJWN 240955Z AUTO 00000KT 10SM BKN013 BKN019 OVC025 23/21 A2990 RMK A01
KJWN 240935Z AUTO 00000KT 10SM SCT014 SCT018 BKN035 23/21 A2990 RMK A01
KJWN 240915Z AUTO 25003KT 10SM SCT035 23/21 A2989 RMK A01
KJWN 240855Z AUTO 24007KT 10SM FEW035 24/21 A2988 RMK A01
KJWN 240835Z AUTO 23005KT 10SM SCT038 24/20 A2987 RMK A01
KJWN 240815Z AUTO 23007KT 10SM FEW038 24/20 A2987 RMK A01
KJWN 240755Z AUTO 23007KT 10SM CLR 24/21 A2987 RMK A01
KJWN 240735Z AUTO 24007KT 10SM FEW047 24/20 A2986 RMK A01
KJWN 240715Z AUTO 23008KT 10SM CLR 25/20 A2986 RMK A01
KJWN 240655Z AUTO 23008G14KT 10SM CLR 25/20 A2986 RMK A01
KJWN 240635Z AUTO 23008G14KT 10SM FEW044 25/21 A2986 RMK A01
KJWN 240615Z AUTO 21010KT 10SM FEW043 SCT050 SCT060 25/22 A2986 RMK A01
KJWN 240555Z AUTO 22007KT 10SM FEW037 BKN050 BKN060 25/22 A2987 RMK A01
KJWN 240535Z AUTO 21007KT 10SM FEW038 SCT050 BKN065 25/23 A2987 RMK A01
KJWN 240515Z AUTO 21004KT 10SM SCT040 BKN055 BKN065 25/23 A2986 RMK A01
KJWN 240455Z AUTO 20005KT 10SM FEW032 FEW038 SCT060 25/23 A2986 RMK A01
KJWN 240435Z AUTO 21006KT 10SM FEW065 25/23 A2987 RMK A01
KJWN 240415Z AUTO 20009KT 10SM CLR 25/23 A2986 RMK A01
KJWN 240355Z AUTO 19007KT 10SM CLR 25/23 A2985 RMK A01
KJWN 240335Z AUTO 20007KT 10SM CLR 26/23 A2985 RMK A01
KJWN 240315Z AUTO 19006KT 10SM CLR 26/23 A2985 RMK A01
KJWN 240255Z AUTO 19006KT 10SM CLR 26/23 A2985 RMK A01
KJWN 240235Z AUTO 19006KT 10SM FEW027 SCT036 SCT044 26/23 A2985 RMK A01
KJWN 240215Z AUTO 19005KT 10SM FEW026 BKN036 BKN044 25/23 A2984 RMK A01
KJWN 240155Z AUTO 20004KT 10SM SCT030 BKN035 26/23 A2983 RMK A01
KJWN 240135Z AUTO 21004KT 10SM SCT033 SCT039 26/23 A2982 RMK A01
KJWN 240115Z AUTO 20003KT 10SM SCT030 SCT035 27/23 A2982 RMK A01
KJWN 240055Z AUTO 22003KT 9SM CLR 27/22 A2981 RMK A01
KJWN 240035Z AUTO 21005KT 9SM FEW050 27/22 A2981 RMK A01
KJWN 240015Z AUTO 21006KT 9SM FEW040 SCT050 28/22 A2982 RMK A01
KJWN 232355Z AUTO 21007KT 10SM FEW034 SCT040 SCT045 28/22 A2982 RMK A01
KJWN 232335Z AUTO 21008KT 10SM BKN034 BKN040 BKN046 28/22 A2982 RMK A01
KJWN 232315Z AUTO 21009KT 10SM SCT036 SCT044 28/22 A2981 RMK A01
KJWN 232255Z AUTO 20010KT 10SM SCT036 29/22 A2980 RMK A01
KJWN 232235Z AUTO 20008KT 10SM SCT034 28/21 A2981 RMK A01
KJWN 232215Z AUTO 22009KT 10SM FEW032 28/21 A2981 RMK A01
KJWN 232155Z AUTO 21010KT 10SM FEW033 29/21 A2982 RMK A01
KJWN 232135Z AUTO 20010KT 10SM CLR 29/21 A2982 RMK A01
KJWN 232115Z AUTO 22010G16KT 9SM CLR 29/21 A2982 RMK A01
KJWN 232055Z AUTO 21012KT 10SM FEW027 28/21 A2982 RMK A01
KJWN 232035Z AUTO 22012G18KT 10SM SCT024 SCT034 29/21 A2982 RMK A01
KJWN 232015Z AUTO 20013KT 9SM BKN020 BKN025 28/22 A2982 RMK A01
KJWN 231955Z AUTO 20010KT 9SM BKN019 OVC023 27/23 A2983 RMK A01
KJWN 231935Z AUTO 20009KT 10SM OVC019 27/22 A2983 RMK A01
KJWN 231915Z AUTO 20006KT 9SM BKN019 BKN026 27/22 A2984 RMK A01
KJWN 231855Z AUTO 21006G12KT 9SM FEW100 27/22 A2984 RMK A01
KJWN 231835Z AUTO 21007KT 10SM SCT100 26/22 A2984 RMK A01
KJWN 231815Z AUTO 20009KT 9SM FEW023 FEW036 SCT110 26/22 A2985 RMK A01
KJWN 231755Z AUTO 19009KT 9SM SCT023 BKN027 BKN036 26/22 A2985 RMK A01
KJWN 231735Z AUTO 20013KT 9SM BKN023 BKN029 BKN034 26/21 A2985 RMK A01
KJWN 231715Z AUTO 15009KT 9SM SCT023 BKN029 27/21 A2984 RMK A01
KJWN 231655Z AUTO 18008KT 10SM BKN025 BKN031 BKN037 28/21 A2985 RMK A01
KJWN 231635Z AUTO 19008KT 10SM BKN023 BKN028 27/21 A2987 RMK A01
KJWN 231615Z AUTO 22008G13KT 10SM SCT024 BKN029 27/21 A2986 RMK A01
KJWN 231555Z AUTO 19008G16KT 9SM BKN023 BKN027 27/21 A2987 RMK A01
KJWN 231535Z AUTO 21007KT 10SM SCT018 SCT026 27/21 A2986 RMK A01
KJWN 231515Z AUTO 22008KT 9SM BKN018 BKN050 BKN065 26/21 A2986 RMK A01
KJWN 231455Z AUTO 22008KT 10SM BKN016 BKN050 25/21 A2986 RMK A01
KJWN 231435Z AUTO 18006KT 8SM SCT014 BKN060 BKN070 25/21 A2986 RMK A01
KJWN 231415Z AUTO 20006KT 9SM FEW013 OVC055 24/21 A2986 RMK A01
KJWN 231355Z AUTO 22006KT 10SM OVC055 24/21 A2986 RMK A01
KJWN 231335Z AUTO 21008KT 9SM BKN055 24/21 A2985 RMK A01
KJWN 231315Z AUTO 20005KT 8SM BKN060 BKN065 24/21 A2984 RMK A01
KJWN 231255Z AUTO 22004KT 9SM OVC060 23/20 A2984 RMK A01
KJWN 231235Z AUTO 21006KT 9SM BKN060 BKN070 22/20 A2983 RMK A01
KJWN 231215Z AUTO 00000KT 8SM OVC055 22/20 A2983 RMK A01
KJWN 231155Z AUTO 00000KT 9SM OVC055 21/20 A2984 RMK A01
KJWN 231135Z AUTO 00000KT 9SM BKN055 21/19 A2984 RMK A01
KJWN 231115Z AUTO 00000KT 10SM OVC060 20/19 A2983 RMK A01
KJWN 231055Z AUTO 00000KT 9SM SCT060 BKN070 20/19 A2983 RMK A01
KJWN 231035Z AUTO 00000KT 10SM SCT065 20/18 A2982 RMK A01